Terminal Aerodrome Forecast
Issued by NWS Twin Cities, MN

Home | Current Version | Previous Version | Graphics & Text | Print | Product List | Glossary Off
Versions: 1 2 3 4 5 6 7 8 9 10 11 12 13 14 15 16 17 18 19

000
FTUS43 KMPX 031353 AAA
TAFSTC
TAF AMD
KSTC 031353Z 0314/0412 17005KT 3/4SM -SN BR VV009
      TEMPO 0314/0315 1/4SM +SN VV005
     FM031530 29012G20KT 1SM -SN BR OVC009
     FM031800 31020G30KT 5SM BLSN FEW020 BKN090
     FM040100 30017G25KT P6SM SKC
     FM040600 29010KT P6SM SKC=

USA.gov is the U.S. government's official web portal to all federal, state and local government web resources and services.